Time;durP1;ratioP1;P1;durP2;ratioP2;P2;SDS_P1;SDS_P2;PMS_P1;PMS_P2;Temp;Humidity;BMP_temperature;BMP_pressure;BME280_temperature;BME280_humidity;BME280_pressure;Samples;Min_cycle;Max_cycle;Signal;HPM_P1;HPM_P2
2024/01/04 00:00:23;;;;;;;2.50;1.00;;;;;;;;;;5027168;28;20185;-68
2024/01/04 00:02:48;;;;;;;2.87;0.90;;;;;;;;;;5029658;28;20424;-68
2024/01/04 00:05:14;;;;;;;3.53;1.30;;;;;;;;;;5009618;28;20657;-66
2024/01/04 00:07:39;;;;;;;4.00;1.10;;;;;;;;;;5025283;28;20274;-67
2024/01/04 00:10:04;;;;;;;2.30;0.50;;;;;;;;;;5030084;28;20190;-68
2024/01/04 00:12:29;;;;;;;5.13;1.27;;;;;;;;;;5027728;28;20191;-68
2024/01/04 00:14:55;;;;;;;4.53;1.13;;;;;;;;;;5021436;28;20256;-68
2024/01/04 00:17:21;;;;;;;4.23;1.27;;;;;;;;;;5024080;28;20238;-68
2024/01/04 00:19:46;;;;;;;3.60;1.50;;;;;;;;;;5003120;28;20170;-67
2024/01/04 00:22:12;;;;;;;10.10;1.40;;;;;;;;;;5018903;28;20533;-67
2024/01/04 00:24:37;;;;;;;6.63;2.37;;;;;;;;;;5029178;28;20665;-68
2024/01/04 00:27:02;;;;;;;8.27;1.93;;;;;;;;;;5026691;28;20198;-68
2024/01/04 00:29:28;;;;;;;9.53;2.80;;;;;;;;;;5010418;28;20282;-67
2024/01/04 00:31:55;;;;;;;8.30;2.23;;;;;;;;;;5027973;28;20186;-68
2024/01/04 00:34:20;;;;;;;3.67;2.10;;;;;;;;;;5030280;28;20731;-68
2024/01/04 00:36:45;;;;;;;6.40;2.80;;;;;;;;;;5020701;28;20232;-68
2024/01/04 00:39:10;;;;;;;4.97;2.00;;;;;;;;;;5029118;28;20186;-68
2024/01/04 00:41:35;;;;;;;11.40;2.43;;;;;;;;;;5030561;28;20170;-67
2024/01/04 00:44:01;;;;;;;7.23;2.40;;;;;;;;;;5029328;28;20178;-68
2024/01/04 00:46:26;;;;;;;9.10;2.67;;;;;;;;;;5030280;28;20285;-68
2024/01/04 00:48:51;;;;;;;8.30;2.83;;;;;;;;;;5017615;28;20658;-68
2024/01/04 00:51:16;;;;;;;11.30;2.77;;;;;;;;;;5016530;28;20184;-67
2024/01/04 00:53:43;;;;;;;6.57;2.10;;;;;;;;;;5009170;28;20220;-67
2024/01/04 00:56:09;;;;;;;5.30;2.00;;;;;;;;;;5022769;28;20206;-67
2024/01/04 00:58:34;;;;;;;11.07;2.50;;;;;;;;;;5027688;28;20185;-67
2024/01/04 01:00:59;;;;;;;8.87;2.30;;;;;;;;;;5029088;28;20593;-68
2024/01/04 01:03:24;;;;;;;4.23;1.87;;;;;;;;;;5027191;28;20182;-68
2024/01/04 01:05:50;;;;;;;5.17;1.90;;;;;;;;;;5031587;28;20186;-68
2024/01/04 01:08:16;;;;;;;7.20;1.90;;;;;;;;;;5023799;28;20224;-67
2024/01/04 01:10:41;;;;;;;4.37;1.97;;;;;;;;;;5029466;28;20594;-67
2024/01/04 01:13:06;;;;;;;6.63;1.70;;;;;;;;;;5030965;28;20170;-67
2024/01/04 01:15:31;;;;;;;7.23;2.03;;;;;;;;;;5033332;28;20257;-67
2024/01/04 01:17:56;;;;;;;3.93;1.80;;;;;;;;;;5032167;28;20194;-67
2024/01/04 01:20:22;;;;;;;3.33;1.63;;;;;;;;;;5027246;28;20261;-67
2024/01/04 01:22:47;;;;;;;8.63;1.87;;;;;;;;;;5033214;28;20190;-68
2024/01/04 01:25:12;;;;;;;10.67;2.90;;;;;;;;;;5034198;28;20505;-68
2024/01/04 01:27:37;;;;;;;7.27;2.63;;;;;;;;;;5024937;28;20202;-68
2024/01/04 01:30:03;;;;;;;6.07;1.50;;;;;;;;;;5030948;28;20569;-68
2024/01/04 01:32:28;;;;;;;7.00;2.17;;;;;;;;;;5033472;28;20206;-67
2024/01/04 01:34:54;;;;;;;6.47;1.97;;;;;;;;;;5032188;28;20209;-68
2024/01/04 01:37:19;;;;;;;6.90;2.03;;;;;;;;;;5032544;28;20229;-68
2024/01/04 01:39:44;;;;;;;5.83;2.00;;;;;;;;;;5031267;28;20194;-67
2024/01/04 01:42:09;;;;;;;5.03;1.80;;;;;;;;;;5032792;28;20709;-68
2024/01/04 01:44:35;;;;;;;5.97;1.53;;;;;;;;;;5019041;28;20191;-68
2024/01/04 01:47:00;;;;;;;5.47;1.70;;;;;;;;;;5031620;28;20198;-68
2024/01/04 01:49:26;;;;;;;6.30;1.40;;;;;;;;;;5030844;28;20174;-68
2024/01/04 01:51:51;;;;;;;2.93;1.20;;;;;;;;;;5032988;28;20571;-68
2024/01/04 01:54:16;;;;;;;2.30;1.40;;;;;;;;;;5031877;28;20213;-67
2024/01/04 01:56:41;;;;;;;5.73;1.57;;;;;;;;;;5032534;28;20226;-67
2024/01/04 01:59:07;;;;;;;4.40;1.03;;;;;;;;;;5032386;28;20257;-68
2024/01/04 02:01:32;;;;;;;10.97;2.20;;;;;;;;;;5029156;28;20178;-67
2024/01/04 02:03:57;;;;;;;3.33;1.43;;;;;;;;;;5024466;28;21933;-67
2024/01/04 02:06:22;;;;;;;4.97;1.40;;;;;;;;;;5048011;22;21038;-71
2024/01/04 02:08:49;;;;;;;4.63;1.00;;;;;;;;;;5027166;28;20186;-70
2024/01/04 02:11:17;;;;;;;6.70;1.50;;;;;;;;;;5033444;28;20185;-70
2024/01/04 02:13:42;;;;;;;3.77;1.47;;;;;;;;;;5032265;28;20194;-70
2024/01/04 02:16:08;;;;;;;6.90;1.73;;;;;;;;;;5015108;28;20182;-70
2024/01/04 02:18:33;;;;;;;7.63;1.50;;;;;;;;;;5032270;28;20174;-70
2024/01/04 02:20:59;;;;;;;4.63;1.30;;;;;;;;;;5032705;28;20273;-70
2024/01/04 02:23:24;;;;;;;2.23;1.50;;;;;;;;;;5026668;28;20187;-71
2024/01/04 02:25:49;;;;;;;8.43;1.67;;;;;;;;;;5029033;28;20190;-70
2024/01/04 02:28:14;;;;;;;4.53;1.83;;;;;;;;;;5031732;28;20643;-71
2024/01/04 02:30:39;;;;;;;5.73;1.90;;;;;;;;;;5032955;28;20186;-71
2024/01/04 02:33:05;;;;;;;4.43;2.10;;;;;;;;;;5014920;28;20205;-71
2024/01/04 02:35:30;;;;;;;4.47;1.27;;;;;;;;;;5031479;28;20697;-71
2024/01/04 02:37:55;;;;;;;3.77;1.47;;;;;;;;;;5032523;28;20259;-72
2024/01/04 02:40:21;;;;;;;2.53;1.90;;;;;;;;;;5027852;28;20247;-69
2024/01/04 02:42:46;;;;;;;5.63;2.17;;;;;;;;;;5026350;28;20186;-70
2024/01/04 02:45:12;;;;;;;6.23;1.80;;;;;;;;;;5013219;28;20186;-71
2024/01/04 02:47:37;;;;;;;2.33;1.37;;;;;;;;;;5031075;28;20303;-70
2024/01/04 02:50:03;;;;;;;2.00;1.40;;;;;;;;;;5032397;28;20624;-69
2024/01/04 02:52:28;;;;;;;6.20;1.60;;;;;;;;;;5032313;28;20183;-69
2024/01/04 02:54:53;;;;;;;2.00;1.57;;;;;;;;;;5031057;28;20210;-71
2024/01/04 02:57:18;;;;;;;2.47;1.23;;;;;;;;;;5026356;28;20662;-70
2024/01/04 02:59:44;;;;;;;5.03;1.40;;;;;;;;;;5027033;28;20296;-70
2024/01/04 03:02:09;;;;;;;4.27;1.57;;;;;;;;;;5030667;28;20265;-71
2024/01/04 03:04:36;;;;;;;6.77;1.70;;;;;;;;;;5029862;28;20182;-70
2024/01/04 03:07:01;;;;;;;3.13;1.80;;;;;;;;;;5028903;28;20252;-70
2024/01/04 03:09:26;;;;;;;4.27;1.40;;;;;;;;;;5020842;28;20603;-71
2024/01/04 03:11:52;;;;;;;7.07;1.53;;;;;;;;;;5031389;28;20186;-71
2024/01/04 03:14:17;;;;;;;2.30;1.00;;;;;;;;;;5011635;28;20914;-70
2024/01/04 03:16:42;;;;;;;4.27;1.20;;;;;;;;;;5011445;28;20665;-70
2024/01/04 03:19:07;;;;;;;1.93;0.97;;;;;;;;;;5030394;28;20209;-70
2024/01/04 03:21:32;;;;;;;2.00;1.27;;;;;;;;;;5030740;28;20185;-70
2024/01/04 03:23:58;;;;;;;3.57;1.20;;;;;;;;;;5030459;28;20194;-70
2024/01/04 03:26:23;;;;;;;3.63;1.40;;;;;;;;;;5030460;28;20245;-70
2024/01/04 03:28:48;;;;;;;2.30;1.07;;;;;;;;;;5029432;28;20178;-70
2024/01/04 03:31:13;;;;;;;6.83;1.60;;;;;;;;;;5030954;28;20217;-70
2024/01/04 03:33:39;;;;;;;2.53;0.90;;;;;;;;;;5030538;28;20224;-71
2024/01/04 03:36:07;;;;;;;2.57;1.10;;;;;;;;;;5029676;28;20736;-71
2024/01/04 03:38:32;;;;;;;2.73;1.37;;;;;;;;;;5022509;28;20177;-71
2024/01/04 03:41:00;;;;;;;1.77;1.33;;;;;;;;;;5014783;28;20186;-71
2024/01/04 03:43:25;;;;;;;3.27;0.90;;;;;;;;;;5028271;28;20186;-70
2024/01/04 03:45:50;;;;;;;3.13;1.07;;;;;;;;;;5028927;28;20182;-71
2024/01/04 03:48:15;;;;;;;4.97;1.30;;;;;;;;;;5007862;28;20589;-71
2024/01/04 03:50:41;;;;;;;5.93;1.60;;;;;;;;;;5030447;28;20201;-70
2024/01/04 03:53:06;;;;;;;3.07;1.10;;;;;;;;;;5028751;28;20650;-70
2024/01/04 03:55:31;;;;;;;4.07;1.40;;;;;;;;;;5012552;28;20185;-71
2024/01/04 03:57:57;;;;;;;4.50;1.40;;;;;;;;;;5007825;28;20217;-71
2024/01/04 04:00:22;;;;;;;4.90;1.67;;;;;;;;;;5026854;28;20646;-71
2024/01/04 04:02:47;;;;;;;3.40;1.50;;;;;;;;;;5029074;28;20178;-71
2024/01/04 04:05:13;;;;;;;3.20;1.20;;;;;;;;;;5027276;28;20174;-71
2024/01/04 04:07:38;;;;;;;3.30;1.50;;;;;;;;;;5028973;28;20264;-70
2024/01/04 04:10:03;;;;;;;3.80;1.47;;;;;;;;;;5019452;28;20770;-70
2024/01/04 04:12:29;;;;;;;6.30;2.50;;;;;;;;;;5021597;28;20179;-70
2024/01/04 04:14:54;;;;;;;11.27;2.90;;;;;;;;;;5029027;28;20199;-70
2024/01/04 04:17:20;;;;;;;4.87;2.80;;;;;;;;;;5029698;28;20194;-70
2024/01/04 04:19:45;;;;;;;7.33;2.67;;;;;;;;;;5030957;28;20634;-69
2024/01/04 04:22:11;;;;;;;6.97;3.70;;;;;;;;;;5030278;28;20280;-70
2024/01/04 04:24:36;;;;;;;8.33;3.43;;;;;;;;;;5031279;28;20183;-70
2024/01/04 04:27:01;;;;;;;9.23;3.70;;;;;;;;;;5029681;28;20340;-70
2024/01/04 04:29:27;;;;;;;8.40;3.57;;;;;;;;;;5023960;28;20560;-71
2024/01/04 04:31:52;;;;;;;7.10;4.03;;;;;;;;;;5010630;28;20239;-70
2024/01/04 04:34:17;;;;;;;8.73;4.10;;;;;;;;;;5029886;28;20557;-70
2024/01/04 04:36:42;;;;;;;5.80;3.70;;;;;;;;;;5029756;28;20194;-69
2024/01/04 04:39:08;;;;;;;7.20;3.07;;;;;;;;;;5029210;28;20178;-71
2024/01/04 04:41:34;;;;;;;5.57;3.33;;;;;;;;;;5029669;28;20204;-70
2024/01/04 04:43:59;;;;;;;8.13;3.90;;;;;;;;;;5029862;28;20662;-72
2024/01/04 04:46:25;;;;;;;6.40;3.70;;;;;;;;;;5026025;28;20284;-71
2024/01/04 04:48:55;;;;;;;8.57;4.30;;;;;;;;;;5005346;28;20568;-70
2024/01/04 04:51:20;;;;;;;6.43;3.10;;;;;;;;;;5005689;28;20190;-70
2024/01/04 04:53:45;;;;;;;11.47;4.07;;;;;;;;;;5029140;28;20295;-70
2024/01/04 04:56:10;;;;;;;14.77;3.90;;;;;;;;;;5029396;28;20177;-70
2024/01/04 04:58:35;;;;;;;6.70;3.37;;;;;;;;;;5029900;28;20231;-71
2024/01/04 05:01:01;;;;;;;9.33;4.70;;;;;;;;;;5029345;28;20730;-71
2024/01/04 05:03:26;;;;;;;12.43;4.70;;;;;;;;;;5028769;28;20181;-70
2024/01/04 05:05:51;;;;;;;16.13;4.27;;;;;;;;;;5029772;28;20174;-70
2024/01/04 05:08:16;;;;;;;12.13;4.43;;;;;;;;;;5021455;28;20609;-70
2024/01/04 05:10:41;;;;;;;16.77;4.40;;;;;;;;;;5028357;28;20633;-70
2024/01/04 05:13:07;;;;;;;7.20;4.20;;;;;;;;;;5025894;28;20178;-71
2024/01/04 05:15:32;;;;;;;11.17;5.57;;;;;;;;;;5030231;28;20308;-70
2024/01/04 05:17:57;;;;;;;10.97;5.03;;;;;;;;;;5029364;28;20210;-70
2024/01/04 05:20:22;;;;;;;9.57;4.50;;;;;;;;;;5029691;28;20186;-70
2024/01/04 05:22:48;;;;;;;10.40;4.97;;;;;;;;;;5028862;28;20174;-70
2024/01/04 05:25:14;;;;;;;12.33;5.13;;;;;;;;;;5028645;28;20201;-70
2024/01/04 05:27:39;;;;;;;13.00;5.37;;;;;;;;;;5028722;28;20201;-70
2024/01/04 05:30:07;;;;;;;15.07;5.33;;;;;;;;;;5023407;28;20717;-71
2024/01/04 05:32:33;;;;;;;8.10;4.53;;;;;;;;;;5009686;28;20194;-71
2024/01/04 05:34:58;;;;;;;12.77;4.40;;;;;;;;;;5007498;28;20211;-70
2024/01/04 05:37:24;;;;;;;12.37;5.13;;;;;;;;;;5026853;28;20253;-70
2024/01/04 05:39:49;;;;;;;15.80;4.70;;;;;;;;;;5029251;28;20277;-70
2024/01/04 05:42:14;;;;;;;9.83;4.67;;;;;;;;;;5029748;28;20247;-70
2024/01/04 05:44:39;;;;;;;8.30;4.40;;;;;;;;;;5029482;28;20181;-71
2024/01/04 05:47:05;;;;;;;10.80;3.90;;;;;;;;;;5010285;28;20551;-70
2024/01/04 05:49:30;;;;;;;9.07;4.17;;;;;;;;;;5023135;28;20201;-70
2024/01/04 05:51:56;;;;;;;10.73;4.03;;;;;;;;;;5027505;28;20186;-70
2024/01/04 05:54:22;;;;;;;9.27;3.53;;;;;;;;;;5014472;28;20198;-71
2024/01/04 05:56:47;;;;;;;13.13;4.47;;;;;;;;;;5031616;28;20209;-70
2024/01/04 05:59:12;;;;;;;8.87;3.63;;;;;;;;;;5030554;28;20273;-71
2024/01/04 06:01:39;;;;;;;9.37;4.37;;;;;;;;;;5032970;28;20177;-71
2024/01/04 06:04:04;;;;;;;7.20;3.53;;;;;;;;;;5033057;28;20396;-70
2024/01/04 06:06:29;;;;;;;7.17;3.30;;;;;;;;;;5032431;28;20209;-70
2024/01/04 06:08:54;;;;;;;11.17;3.67;;;;;;;;;;5021925;28;20178;-71
2024/01/04 06:11:20;;;;;;;9.63;3.37;;;;;;;;;;5028680;28;20182;-69
2024/01/04 06:13:45;;;;;;;7.53;3.50;;;;;;;;;;5032032;28;20584;-70
2024/01/04 06:16:10;;;;;;;6.43;3.83;;;;;;;;;;5031604;28;20258;-70
2024/01/04 06:18:35;;;;;;;9.97;3.73;;;;;;;;;;5030426;28;20178;-70
2024/01/04 06:21:01;;;;;;;7.57;3.37;;;;;;;;;;5032563;28;20677;-71
2024/01/04 06:23:27;;;;;;;7.37;3.53;;;;;;;;;;5030974;28;20301;-70
2024/01/04 06:25:52;;;;;;;6.87;3.57;;;;;;;;;;5030719;28;20194;-71
2024/01/04 06:28:17;;;;;;;11.60;4.57;;;;;;;;;;5008822;28;20206;-69
2024/01/04 06:30:43;;;;;;;8.43;4.30;;;;;;;;;;5025263;28;20179;-70
2024/01/04 06:33:08;;;;;;;8.80;3.67;;;;;;;;;;5028223;28;20206;-71
2024/01/04 06:35:33;;;;;;;7.30;3.00;;;;;;;;;;5011522;28;20220;-69
2024/01/04 06:37:58;;;;;;;7.53;3.50;;;;;;;;;;5030651;28;20199;-71
2024/01/04 06:40:23;;;;;;;8.27;2.83;;;;;;;;;;5014574;28;20182;-70
2024/01/04 06:42:55;;;;;;;11.60;3.47;;;;;;;;;;5030988;28;20183;-70
2024/01/04 06:45:20;;;;;;;6.47;3.20;;;;;;;;;;5009632;28;20186;-70
2024/01/04 06:47:45;;;;;;;12.33;3.93;;;;;;;;;;5003943;28;20670;-70
2024/01/04 06:50:11;;;;;;;9.20;3.80;;;;;;;;;;5030074;28;20189;-70
2024/01/04 06:52:36;;;;;;;5.00;2.83;;;;;;;;;;5026039;28;20181;-71
2024/01/04 06:55:01;;;;;;;10.03;4.00;;;;;;;;;;5031345;28;20209;-70
2024/01/04 06:57:26;;;;;;;8.87;3.50;;;;;;;;;;5012774;28;20248;-70
2024/01/04 06:59:52;;;;;;;6.77;2.93;;;;;;;;;;5032675;28;20645;-70
2024/01/04 07:02:17;;;;;;;7.20;2.90;;;;;;;;;;5018958;28;20604;-70
2024/01/04 07:04:42;;;;;;;4.77;3.07;;;;;;;;;;5028949;28;20178;-70
2024/01/04 07:07:07;;;;;;;5.13;3.03;;;;;;;;;;5010681;28;20237;-71
2024/01/04 07:09:35;;;;;;;4.23;2.33;;;;;;;;;;5007868;28;20269;-70
2024/01/04 07:12:00;;;;;;;7.80;2.60;;;;;;;;;;5027685;28;20236;-71
2024/01/04 07:14:25;;;;;;;7.37;2.20;;;;;;;;;;5027993;28;20210;-70
2024/01/04 07:16:50;;;;;;;8.63;3.30;;;;;;;;;;5008909;28;20233;-70
2024/01/04 07:19:16;;;;;;;4.67;2.47;;;;;;;;;;5031246;28;20253;-71
2024/01/04 07:21:41;;;;;;;7.33;3.07;;;;;;;;;;5010592;28;20202;-70
2024/01/04 07:24:06;;;;;;;5.90;3.00;;;;;;;;;;5030897;28;20179;-71
2024/01/04 07:26:31;;;;;;;5.73;3.30;;;;;;;;;;5013172;28;20210;-70
2024/01/04 07:28:57;;;;;;;7.43;3.67;;;;;;;;;;5023439;28;20202;-70
2024/01/04 07:31:22;;;;;;;8.37;3.23;;;;;;;;;;5024809;28;20190;-70
2024/01/04 07:33:47;;;;;;;5.17;2.53;;;;;;;;;;5025667;28;20193;-70
2024/01/04 07:36:14;;;;;;;4.60;2.63;;;;;;;;;;5029695;28;20178;-70
2024/01/04 07:38:39;;;;;;;4.83;2.90;;;;;;;;;;5030141;28;20170;-71
2024/01/04 07:41:04;;;;;;;7.50;3.30;;;;;;;;;;5030131;28;20230;-70
2024/01/04 07:43:30;;;;;;;10.83;3.90;;;;;;;;;;5030571;28;20255;-70
2024/01/04 07:45:55;;;;;;;6.30;3.80;;;;;;;;;;5025998;28;20187;-71
2024/01/04 07:48:21;;;;;;;8.93;4.03;;;;;;;;;;5024802;28;20704;-70
2024/01/04 07:50:46;;;;;;;8.93;3.77;;;;;;;;;;5026298;28;20182;-70
2024/01/04 07:53:12;;;;;;;5.37;3.53;;;;;;;;;;5027208;28;20627;-71
2024/01/04 07:55:37;;;;;;;6.40;3.80;;;;;;;;;;5027446;28;20668;-70
2024/01/04 07:58:02;;;;;;;7.07;3.83;;;;;;;;;;5009494;28;20245;-71
2024/01/04 08:00:28;;;;;;;7.73;4.07;;;;;;;;;;5006456;28;20178;-70
2024/01/04 08:02:53;;;;;;;9.07;4.03;;;;;;;;;;5029209;28;20178;-70
2024/01/04 08:05:18;;;;;;;10.93;4.10;;;;;;;;;;5012382;28;20182;-71
2024/01/04 08:07:43;;;;;;;9.17;4.40;;;;;;;;;;5045209;22;20584;-67
2024/01/04 08:10:09;;;;;;;6.63;4.23;;;;;;;;;;5027760;28;20202;-66
2024/01/04 08:12:34;;;;;;;12.77;4.33;;;;;;;;;;5028199;28;20225;-67
2024/01/04 08:14:59;;;;;;;5.13;3.40;;;;;;;;;;5025755;28;20321;-67
2024/01/04 08:17:24;;;;;;;8.53;3.63;;;;;;;;;;5030336;28;20225;-67
2024/01/04 08:19:50;;;;;;;9.17;3.60;;;;;;;;;;5029279;28;20173;-67
2024/01/04 08:22:15;;;;;;;7.70;3.80;;;;;;;;;;5029598;28;20229;-67
2024/01/04 08:24:41;;;;;;;9.37;3.70;;;;;;;;;;5030038;28;20269;-67
2024/01/04 08:27:06;;;;;;;5.37;3.10;;;;;;;;;;5028888;28;20206;-67
2024/01/04 08:29:31;;;;;;;8.03;3.93;;;;;;;;;;5028303;28;20190;-67
2024/01/04 08:31:56;;;;;;;5.53;3.10;;;;;;;;;;5030304;28;20243;-67
2024/01/04 08:34:21;;;;;;;7.40;2.80;;;;;;;;;;5028490;28;20221;-67
2024/01/04 08:36:47;;;;;;;6.77;3.03;;;;;;;;;;5027699;28;20266;-67
2024/01/04 08:39:13;;;;;;;3.90;2.17;;;;;;;;;;5027954;28;20166;-67
2024/01/04 08:41:38;;;;;;;3.57;1.70;;;;;;;;;;5026689;28;20166;-67
2024/01/04 08:44:03;;;;;;;7.77;2.37;;;;;;;;;;5027929;28;20206;-67
2024/01/04 08:46:30;;;;;;;7.93;2.10;;;;;;;;;;5028516;28;20641;-67
2024/01/04 08:48:55;;;;;;;3.47;1.90;;;;;;;;;;5028258;28;20380;-67
2024/01/04 08:51:20;;;;;;;4.47;1.70;;;;;;;;;;5029817;28;20275;-67
2024/01/04 08:53:45;;;;;;;3.60;1.70;;;;;;;;;;5027116;28;20317;-67
2024/01/04 08:56:13;;;;;;;3.47;1.77;;;;;;;;;;5029340;28;20174;-67
2024/01/04 08:58:38;;;;;;;5.27;1.70;;;;;;;;;;5030006;28;20324;-68
2024/01/04 09:01:04;;;;;;;7.73;2.80;;;;;;;;;;5028813;28;20293;-67
2024/01/04 09:03:29;;;;;;;4.53;2.10;;;;;;;;;;5026124;28;20237;-67
2024/01/04 09:05:55;;;;;;;4.00;2.17;;;;;;;;;;5027782;28;20182;-67
2024/01/04 09:08:20;;;;;;;4.03;2.23;;;;;;;;;;5025213;28;20669;-68
2024/01/04 09:10:47;;;;;;;6.13;1.90;;;;;;;;;;5025933;28;20258;-67
2024/01/04 09:13:13;;;;;;;6.50;2.10;;;;;;;;;;5005314;28;20205;-68
2024/01/04 09:15:38;;;;;;;3.67;2.50;;;;;;;;;;5008336;28;20174;-67
2024/01/04 09:18:03;;;;;;;4.27;2.50;;;;;;;;;;5025854;28;20222;-67
2024/01/04 09:20:28;;;;;;;6.27;2.30;;;;;;;;;;5024638;28;20233;-68
2024/01/04 09:22:53;;;;;;;8.07;2.20;;;;;;;;;;5028982;28;20212;-67
2024/01/04 09:25:19;;;;;;;5.07;2.87;;;;;;;;;;5026198;28;20186;-68
2024/01/04 09:27:44;;;;;;;3.03;2.23;;;;;;;;;;5027798;28;20198;-68
2024/01/04 09:30:10;;;;;;;6.83;2.33;;;;;;;;;;5029217;28;20178;-67
2024/01/04 09:32:35;;;;;;;3.77;2.10;;;;;;;;;;5030525;28;20578;-67
2024/01/04 09:35:00;;;;;;;3.30;1.73;;;;;;;;;;5033226;28;20236;-67
2024/01/04 09:37:25;;;;;;;3.53;1.80;;;;;;;;;;5026545;28;20190;-67
2024/01/04 09:39:51;;;;;;;6.67;2.17;;;;;;;;;;5030099;28;20248;-68
2024/01/04 09:42:16;;;;;;;3.83;1.70;;;;;;;;;;5033603;28;20864;-68
2024/01/04 09:44:42;;;;;;;1.73;1.30;;;;;;;;;;5031654;28;20178;-68
2024/01/04 09:47:08;;;;;;;4.23;1.30;;;;;;;;;;5029991;28;20209;-67
2024/01/04 09:49:34;;;;;;;3.50;1.57;;;;;;;;;;5032576;28;20565;-67
2024/01/04 09:51:59;;;;;;;2.03;1.37;;;;;;;;;;5030867;28;20277;-68
2024/01/04 09:54:25;;;;;;;2.17;1.20;;;;;;;;;;5028877;28;20235;-67
2024/01/04 09:56:51;;;;;;;3.53;1.53;;;;;;;;;;5030215;28;20198;-67
2024/01/04 09:59:17;;;;;;;1.23;0.80;;;;;;;;;;5030877;28;20224;-67
2024/01/04 10:01:43;;;;;;;5.03;1.43;;;;;;;;;;5032004;28;20261;-67
2024/01/04 10:04:11;;;;;;;2.67;1.00;;;;;;;;;;5030017;28;20195;-67
2024/01/04 10:06:38;;;;;;;5.13;0.93;;;;;;;;;;5032613;28;20272;-67
2024/01/04 10:09:10;;;;;;;3.77;0.80;;;;;;;;;;5031473;28;20186;-67
2024/01/04 10:11:41;;;;;;;1.53;1.10;;;;;;;;;;5023871;28;20183;-68
2024/01/04 10:14:06;;;;;;;2.57;1.47;;;;;;;;;;5027678;28;20585;-67
2024/01/04 10:16:32;;;;;;;3.37;1.53;;;;;;;;;;5031777;28;20223;-67
2024/01/04 10:18:58;;;;;;;2.17;1.57;;;;;;;;;;5033005;28;20182;-67
2024/01/04 10:21:30;;;;;;;2.53;1.07;;;;;;;;;;5015429;28;20184;-67
2024/01/04 10:23:58;;;;;;;3.75;1.30;;;;;;;;;;5032960;28;20253;-67
2024/01/04 10:26:23;;;;;;;5.17;2.00;;;;;;;;;;5032866;28;20175;-68
2024/01/04 10:28:53;;;;;;;2.93;1.30;;;;;;;;;;5027959;28;20669;-67
2024/01/04 10:31:19;;;;;;;3.25;1.63;;;;;;;;;;5023879;28;20241;-67
2024/01/04 10:33:45;;;;;;;4.60;1.55;;;;;;;;;;5029212;28;20190;-67
2024/01/04 10:36:11;;;;;;;3.13;1.90;;;;;;;;;;5029999;28;20539;-67
2024/01/04 10:38:36;;;;;;;2.50;1.50;;;;;;;;;;5027172;28;20276;-68
2024/01/04 10:41:02;;;;;;;3.90;1.33;;;;;;;;;;5014959;28;20177;-68
2024/01/04 10:43:27;;;;;;;4.05;1.50;;;;;;;;;;5032321;28;20174;-67
2024/01/04 10:45:52;;;;;;;7.47;1.80;;;;;;;;;;5032377;28;20206;-68
2024/01/04 10:48:17;;;;;;;4.30;2.17;;;;;;;;;;5026222;28;20247;-68
2024/01/04 10:50:43;;;;;;;6.18;2.05;;;;;;;;;;5022205;28;20618;-67
2024/01/04 10:53:09;;;;;;;2.22;1.40;;;;;;;;;;5014266;28;20193;-67
2024/01/04 10:55:35;;;;;;;4.40;2.05;;;;;;;;;;5014489;28;20594;-67
2024/01/04 10:58:02;;;;;;;6.53;1.90;;;;;;;;;;5032280;28;20206;-68
2024/01/04 11:00:29;;;;;;;4.15;1.48;;;;;;;;;;5014169;28;20183;-68
2024/01/04 11:02:55;;;;;;;2.22;1.13;;;;;;;;;;5032464;28;20552;-67
2024/01/04 11:05:21;;;;;;;1.77;1.30;;;;;;;;;;5032077;28;20175;-68
2024/01/04 11:07:47;;;;;;;4.78;1.23;;;;;;;;;;5026551;28;20213;-67
2024/01/04 11:10:14;;;;;;;3.92;1.83;;;;;;;;;;5025039;28;20654;-67
2024/01/04 11:12:40;;;;;;;4.60;1.60;;;;;;;;;;5024998;28;20210;-67
2024/01/04 11:15:06;;;;;;;4.33;1.33;;;;;;;;;;5025086;28;20209;-68
2024/01/04 11:17:57;;;;;;;4.17;0.80;;;;;;;;;;5031862;28;20209;-67
2024/01/04 11:20:42;;;;;;;2.57;0.97;;;;;;;;;;5027295;28;20292;-67
2024/01/04 11:23:08;;;;;;;4.53;1.13;;;;;;;;;;5028271;28;20171;-67
2024/01/04 11:25:45;;;;;;;7.30;1.37;;;;;;;;;;5031388;28;20185;-67
2024/01/04 11:28:11;;;;;;;3.43;1.10;;;;;;;;;;5028636;28;20816;-66
2024/01/04 11:30:36;;;;;;;3.33;1.20;;;;;;;;;;5020977;28;20261;-67
2024/01/04 11:33:03;;;;;;;2.27;1.03;;;;;;;;;;5025964;28;20182;-68
2024/01/04 11:35:32;;;;;;;2.37;1.00;;;;;;;;;;5031005;28;20201;-68
2024/01/04 11:37:57;;;;;;;2.40;1.23;;;;;;;;;;5031789;28;20237;-68
2024/01/04 11:40:29;;;;;;;4.50;1.50;;;;;;;;;;5032064;28;20685;-67
2024/01/04 11:42:55;;;;;;;3.00;1.63;;;;;;;;;;5030588;28;20201;-67
2024/01/04 11:45:22;;;;;;;6.17;1.00;;;;;;;;;;5013312;28;20182;-68
2024/01/04 11:47:48;;;;;;;4.05;1.33;;;;;;;;;;5022709;28;20210;-68
2024/01/04 11:50:16;;;;;;;7.03;1.30;;;;;;;;;;5026663;28;20190;-68
2024/01/04 11:52:42;;;;;;;4.87;1.20;;;;;;;;;;5031301;28;20774;-67
2024/01/04 11:55:07;;;;;;;5.55;1.13;;;;;;;;;;5031156;28;20285;-67
2024/01/04 11:57:33;;;;;;;1.75;0.70;;;;;;;;;;5030986;28;20194;-68
2024/01/04 11:59:58;;;;;;;3.67;0.90;;;;;;;;;;5031488;28;20646;-67
2024/01/04 12:02:23;;;;;;;4.65;1.88;;;;;;;;;;5030251;28;20180;-67
2024/01/04 12:04:48;;;;;;;4.75;0.98;;;;;;;;;;5031157;28;20574;-67
2024/01/04 12:07:14;;;;;;;5.55;1.10;;;;;;;;;;5017874;28;20213;-67
2024/01/04 12:09:40;;;;;;;1.30;0.82;;;;;;;;;;5003571;28;20217;-67
2024/01/04 12:12:07;;;;;;;2.90;0.93;;;;;;;;;;5029453;28;20189;-67
2024/01/04 12:14:36;;;;;;;1.00;0.52;;;;;;;;;;5029679;28;20297;-68
2024/01/04 12:17:01;;;;;;;0.85;0.60;;;;;;;;;;5026416;28;20197;-67
2024/01/04 12:19:27;;;;;;;4.25;0.90;;;;;;;;;;5027907;28;20170;-67
2024/01/04 12:21:52;;;;;;;1.20;0.75;;;;;;;;;;5024841;28;20182;-67
2024/01/04 12:24:18;;;;;;;2.63;0.80;;;;;;;;;;5024426;28;20183;-68
2024/01/04 12:26:43;;;;;;;2.17;0.88;;;;;;;;;;5028724;28;20561;-67
2024/01/04 12:29:08;;;;;;;5.07;0.70;;;;;;;;;;5010959;28;20186;-68
2024/01/04 12:31:34;;;;;;;5.15;1.00;;;;;;;;;;5029117;28;20189;-68
2024/01/04 12:33:59;;;;;;;1.98;0.60;;;;;;;;;;5028043;28;20237;-67
2024/01/04 12:36:24;;;;;;;2.17;0.90;;;;;;;;;;5029151;28;20177;-68
2024/01/04 12:38:50;;;;;;;2.53;0.80;;;;;;;;;;5024845;28;20267;-66
2024/01/04 12:41:25;;;;;;;4.15;1.15;;;;;;;;;;5021140;28;20183;-68
2024/01/04 12:43:53;;;;;;;5.10;0.95;;;;;;;;;;5021166;28;20241;-67
2024/01/04 12:46:19;;;;;;;2.50;0.80;;;;;;;;;;5010989;28;20182;-67
2024/01/04 12:48:44;;;;;;;3.13;1.23;;;;;;;;;;5027390;28;20209;-67
2024/01/04 12:51:14;;;;;;;3.65;1.58;;;;;;;;;;5031264;28;20182;-67
2024/01/04 12:53:41;;;;;;;3.75;1.10;;;;;;;;;;5026817;28;20201;-67
2024/01/04 12:56:06;;;;;;;5.18;1.17;;;;;;;;;;5025947;28;20205;-67
2024/01/04 12:58:33;;;;;;;2.20;1.15;;;;;;;;;;5027957;28;20201;-67
2024/01/04 13:00:58;;;;;;;3.75;1.75;;;;;;;;;;5029773;28;20178;-67
2024/01/04 13:03:23;;;;;;;3.15;1.00;;;;;;;;;;5027333;28;20178;-67
2024/01/04 13:05:49;;;;;;;2.20;0.93;;;;;;;;;;5034518;28;20177;-67
2024/01/04 13:08:14;;;;;;;0.90;0.60;;;;;;;;;;5036909;28;20220;-67
2024/01/04 13:10:39;;;;;;;0.77;0.50;;;;;;;;;;5033709;28;20200;-67
2024/01/04 13:13:04;;;;;;;4.67;1.27;;;;;;;;;;5031397;28;20174;-67
2024/01/04 13:15:29;;;;;;;2.97;0.90;;;;;;;;;;5031239;28;20217;-67
2024/01/04 13:17:55;;;;;;;3.17;1.30;;;;;;;;;;5033429;28;20209;-67
2024/01/04 13:20:20;;;;;;;0.93;0.80;;;;;;;;;;5031987;28;20185;-67
2024/01/04 13:22:45;;;;;;;1.03;0.63;;;;;;;;;;5033279;28;20576;-67
2024/01/04 13:25:10;;;;;;;1.97;0.80;;;;;;;;;;5031516;28;20182;-67
2024/01/04 13:27:35;;;;;;;2.07;0.70;;;;;;;;;;5032919;28;20578;-66
2024/01/04 13:30:01;;;;;;;2.27;0.90;;;;;;;;;;5037461;28;20174;-68
2024/01/04 13:32:26;;;;;;;1.90;0.60;;;;;;;;;;5033332;28;20182;-67
2024/01/04 13:34:51;;;;;;;2.03;0.67;;;;;;;;;;5032161;28;20210;-66
2024/01/04 13:37:16;;;;;;;2.17;1.00;;;;;;;;;;5031712;28;20234;-67
2024/01/04 13:39:41;;;;;;;2.23;1.13;;;;;;;;;;5030938;28;20466;-67
2024/01/04 13:42:07;;;;;;;2.23;0.63;;;;;;;;;;5031680;28;20740;-67
2024/01/04 13:44:32;;;;;;;2.17;0.80;;;;;;;;;;5011513;28;20232;-67
2024/01/04 13:46:57;;;;;;;1.03;0.60;;;;;;;;;;5028290;28;20198;-68
2024/01/04 13:49:23;;;;;;;2.37;0.70;;;;;;;;;;5031900;28;20244;-67
2024/01/04 13:51:48;;;;;;;1.07;0.60;;;;;;;;;;5030752;28;20182;-67
2024/01/04 13:54:13;;;;;;;1.87;0.90;;;;;;;;;;5030315;28;20194;-67
2024/01/04 13:56:38;;;;;;;2.33;0.73;;;;;;;;;;5032738;28;20190;-67
2024/01/04 13:59:04;;;;;;;5.47;1.13;;;;;;;;;;5033351;28;20177;-67
2024/01/04 14:01:29;;;;;;;4.80;1.20;;;;;;;;;;5030384;28;20193;-67
2024/01/04 14:03:55;;;;;;;1.70;0.70;;;;;;;;;;5028460;28;20270;-67
2024/01/04 14:06:20;;;;;;;6.83;0.80;;;;;;;;;;5029095;28;20183;-67
2024/01/04 14:08:52;;;;;;;3.80;1.03;;;;;;;;;;5029507;28;20213;-66
2024/01/04 14:11:17;;;;;;;2.03;0.73;;;;;;;;;;5029697;28;20190;-67
2024/01/04 14:13:43;;;;;;;3.10;0.83;;;;;;;;;;5031578;28;21218;-67
2024/01/04 14:16:08;;;;;;;3.87;1.20;;;;;;;;;;5027266;28;20190;-67
2024/01/04 14:18:34;;;;;;;3.67;1.35;;;;;;;;;;5028895;28;20198;-67
2024/01/04 14:20:59;;;;;;;6.67;1.60;;;;;;;;;;5013403;28;20205;-67
2024/01/04 14:23:24;;;;;;;4.80;1.47;;;;;;;;;;5030198;28;20174;-67
2024/01/04 14:25:49;;;;;;;4.73;2.00;;;;;;;;;;5030263;28;20190;-67
2024/01/04 14:28:15;;;;;;;8.27;1.80;;;;;;;;;;5028424;28;20205;-67
2024/01/04 14:30:41;;;;;;;4.50;2.10;;;;;;;;;;5031421;28;20179;-67